Welcome to Des Moines Iowa Weather. I am an independent private personal weather station on the Northwest Side of Des Moines, Iowa. Just East of Windsor Heights and just West of Glendale . This site is also mobile friendly.

There are no active watches, warnings or advisories


Visit our other weather sites:

Historical Data

Weather Station Setup



Weather Underground History page Text

Daily Summary for May 11, 2017 Units:  English    Metric   Both
« Previous Day
Next Day »
Daily Weekly Monthly Yearly Custom
  High: Low: Average:
Temperature: 72.3 °F 53.1 °F 62.1 °F
Dew Point: 56.0 °F 42.0 °F 51.2 °F
Humidity: 94 % 46 % 70 %
Wind Speed: 9.0 mph 0.0 mph 1.1 mph
Wind Gust: 17.0 mph - -
Wind:- - South
Pressure: 29.99 in 29.89 in -
Precipitation: 0.00 in    
Historical Graphs
 
 
Tabular Data for May 11, 2017
Time Temperature Dew Point Pressure Wind Wind Speed Wind Gust Humidity Rainfall Rate (Hourly)
00:04 58.6 °F 56.0 °F 29.91 in NE 1.0 mph 5.0 mph 90 % 0.00 in
00:19 58.6 °F 56.0 °F 29.92 in Calm   4.0 mph 90 % 0.00 in
00:34 58.6 °F 56.0 °F 29.92 in NW 1.0 mph 6.0 mph 90 % 0.00 in
00:49 58.4 °F 56.0 °F 29.92 in Calm   3.0 mph 90 % 0.00 in
01:04 58.2 °F 55.0 °F 29.92 in NNW 1.0 mph 4.0 mph 90 % 0.00 in
01:19 58.1 °F 56.0 °F 29.91 in Calm   4.0 mph 91 % 0.00 in
01:34 57.7 °F 55.0 °F 29.90 in NE 1.0 mph 5.0 mph 91 % 0.00 in
01:49 57.5 °F 55.0 °F 29.90 in Calm   4.0 mph 91 % 0.00 in
02:04 57.3 °F 55.0 °F 29.90 in Calm   4.0 mph 91 % 0.00 in
02:19 57.0 °F 55.0 °F 29.90 in NW 1.0 mph 3.0 mph 91 % 0.00 in
02:34 56.6 °F 54.0 °F 29.91 in Calm   2.0 mph 91 % 0.00 in
02:49 56.3 °F 54.0 °F 29.91 in Calm   1.0 mph 91 % 0.00 in
03:04 55.9 °F 53.0 °F 29.91 in Calm     91 % 0.00 in
03:19 55.4 °F 53.0 °F 29.92 in Calm   1.0 mph 92 % 0.00 in
03:34 55.2 °F 53.0 °F 29.92 in Calm   2.0 mph 92 % 0.00 in
03:49 55.2 °F 53.0 °F 29.94 in Calm     93 % 0.00 in
04:04 55.1 °F 53.0 °F 29.94 in Calm   2.0 mph 93 % 0.00 in
04:19 55.0 °F 53.0 °F 29.94 in Calm   4.0 mph 93 % 0.00 in
04:34 54.9 °F 53.0 °F 29.93 in Calm   3.0 mph 93 % 0.00 in
04:49 54.8 °F 53.0 °F 29.93 in Calm   2.0 mph 93 % 0.00 in
05:04 54.4 °F 53.0 °F 29.93 in Calm   2.0 mph 93 % 0.00 in
05:19 54.1 °F 52.0 °F 29.95 in Calm   1.0 mph 93 % 0.00 in
05:34 53.9 °F 52.0 °F 29.96 in Calm   3.0 mph 93 % 0.00 in
05:49 53.6 °F 52.0 °F 29.96 in Calm   3.0 mph 93 % 0.00 in
06:04 53.5 °F 52.0 °F 29.97 in Calm     93 % 0.00 in
06:20 53.3 °F 51.0 °F 29.97 in Calm     93 % 0.00 in
06:35 53.2 °F 51.0 °F 29.96 in Calm     93 % 0.00 in
06:50 53.1 °F 51.0 °F 29.97 in Calm     93 % 0.00 in
07:05 53.3 °F 52.0 °F 29.97 in NW 1.0 mph 2.0 mph 94 % 0.00 in
07:20 53.5 °F 52.0 °F 29.97 in Calm   4.0 mph 94 % 0.00 in
07:35 53.9 °F 52.0 °F 29.97 in NW 2.0 mph 5.0 mph 93 % 0.00 in
07:50 54.6 °F 53.0 °F 29.96 in NNE 2.0 mph 4.0 mph 93 % 0.00 in
08:05 55.2 °F 53.0 °F 29.97 in Calm   6.0 mph 91 % 0.00 in
08:20 55.9 °F 53.0 °F 29.97 in ENE 3.0 mph 5.0 mph 89 % 0.00 in
08:35 56.6 °F 53.0 °F 29.98 in NW 1.0 mph 5.0 mph 87 % 0.00 in
08:50 57.5 °F 53.0 °F 29.98 in Calm   5.0 mph 86 % 0.00 in
09:05 58.4 °F 54.0 °F 29.98 in NW 2.0 mph 3.0 mph 85 % 0.00 in
09:20 59.5 °F 54.0 °F 29.98 in NE 2.0 mph 6.0 mph 81 % 0.00 in
09:35 60.4 °F 54.0 °F 29.98 in WNW 1.0 mph 5.0 mph 79 % 0.00 in
09:50 61.3 °F 54.0 °F 29.98 in NE 3.0 mph 6.0 mph 76 % 0.00 in
10:05 61.8 °F 53.0 °F 29.98 in West 2.0 mph 6.0 mph 74 % 0.00 in
10:20 62.7 °F 54.0 °F 29.97 in WSW 1.0 mph 6.0 mph 72 % 0.00 in
10:35 63.0 °F 53.0 °F 29.98 in East 2.0 mph 8.0 mph 69 % 0.00 in
10:50 63.5 °F 53.0 °F 29.98 in East 1.0 mph 6.0 mph 69 % 0.00 in
11:05 64.5 °F 54.0 °F 29.98 in North 3.0 mph 8.0 mph 69 % 0.00 in
11:20 66.9 °F 54.0 °F 29.99 in North 1.0 mph 7.0 mph 64 % 0.00 in
11:35 67.0 °F 52.0 °F 29.98 in NE 2.0 mph 6.0 mph 60 % 0.00 in
11:50 67.3 °F 52.0 °F 29.99 in ENE 4.0 mph 9.0 mph 58 % 0.00 in
12:06 68.2 °F 53.0 °F 29.99 in NNE 2.0 mph 6.0 mph 58 % 0.00 in
12:21 68.8 °F 53.0 °F 29.98 in Calm   7.0 mph 57 % 0.00 in
12:36 68.1 °F 52.0 °F 29.99 in Calm   4.0 mph 57 % 0.00 in
12:51 66.8 °F 53.0 °F 29.99 in Calm   6.0 mph 62 % 0.00 in
13:06 67.1 °F 52.0 °F 29.99 in NW 2.0 mph 5.0 mph 58 % 0.00 in
13:21 68.6 °F 51.0 °F 29.99 in Calm   8.0 mph 53 % 0.00 in
13:36 68.1 °F 52.0 °F 29.98 in NW 2.0 mph 4.0 mph 56 % 0.00 in
13:51 69.2 °F 52.0 °F 29.97 in NE 2.0 mph 5.0 mph 54 % 0.00 in
14:06 70.6 °F 52.0 °F 29.97 in NE 3.0 mph 9.0 mph 52 % 0.00 in
14:21 69.6 °F 53.0 °F 29.97 in Calm   10.0 mph 55 % 0.00 in
14:36 68.5 °F 52.0 °F 29.97 in ENE 1.0 mph 2.0 mph 57 % 0.00 in
14:51 71.6 °F 53.0 °F 29.96 in WNW 5.0 mph 5.0 mph 52 % 0.00 in
15:06 71.3 °F 52.0 °F 29.96 in West 2.0 mph 6.0 mph 50 % 0.00 in
15:21 71.7 °F 51.0 °F 29.96 in NNW 2.0 mph 8.0 mph 48 % 0.00 in
15:36 71.8 °F 53.0 °F 29.95 in Calm   12.0 mph 51 % 0.00 in
15:51 72.0 °F 52.0 °F 29.94 in Calm   9.0 mph 50 % 0.00 in
16:06 72.3 °F 55.0 °F 29.93 in East 6.0 mph 8.0 mph 55 % 0.00 in
16:21 71.7 °F 52.0 °F 29.93 in NNE 5.0 mph 9.0 mph 51 % 0.00 in
16:36 71.6 °F 52.0 °F 29.92 in NNW 5.0 mph 9.0 mph 51 % 0.00 in
16:51 71.1 °F 53.0 °F 29.92 in NNW 3.0 mph 17.0 mph 53 % 0.00 in
17:06 70.4 °F 53.0 °F 29.92 in Calm   7.0 mph 54 % 0.00 in
17:21 69.8 °F 52.0 °F 29.91 in Calm   10.0 mph 53 % 0.00 in
17:36 70.7 °F 52.0 °F 29.91 in SE 2.0 mph 8.0 mph 52 % 0.00 in
17:51 69.6 °F 51.0 °F 29.90 in ESE 9.0 mph 9.0 mph 51 % 0.00 in
18:06 69.0 °F 49.0 °F 29.89 in North 4.0 mph 10.0 mph 50 % 0.00 in
18:21 68.6 °F 49.0 °F 29.89 in NNE 1.0 mph 9.0 mph 49 % 0.00 in
18:36 68.2 °F 48.0 °F 29.91 in NW 2.0 mph 11.0 mph 48 % 0.00 in
18:51 67.9 °F 47.0 °F 29.92 in WNW 4.0 mph 10.0 mph 47 % 0.00 in
19:06 67.5 °F 46.0 °F 29.94 in NNE 2.0 mph 6.0 mph 47 % 0.00 in
19:21 67.3 °F 46.0 °F 29.95 in Calm   5.0 mph 47 % 0.00 in
19:36 67.2 °F 46.0 °F 29.96 in Calm   6.0 mph 46 % 0.00 in
19:51 66.9 °F 46.0 °F 29.96 in NE 2.0 mph 4.0 mph 47 % 0.00 in
20:06 66.5 °F 45.0 °F 29.97 in Calm   3.0 mph 47 % 0.00 in
20:21 66.0 °F 46.0 °F 29.97 in Calm   1.0 mph 49 % 0.00 in
20:36 65.3 °F 47.0 °F 29.97 in Calm     51 % 0.00 in
20:51 64.0 °F 46.0 °F 29.97 in Calm   3.0 mph 52 % 0.00 in
21:06 63.2 °F 46.0 °F 29.98 in NNE 1.0 mph 3.0 mph 53 % 0.00 in
21:21 62.5 °F 46.0 °F 29.98 in Calm     56 % 0.00 in
21:36 61.6 °F 46.0 °F 29.99 in Calm     58 % 0.00 in
21:51 60.6 °F 46.0 °F 29.99 in Calm   2.0 mph 58 % 0.00 in
22:06 59.9 °F 45.0 °F 29.99 in Calm   1.0 mph 59 % 0.00 in
22:21 59.4 °F 45.0 °F 29.99 in Calm     60 % 0.00 in
22:36 58.7 °F 45.0 °F 29.99 in NNE 1.0 mph 3.0 mph 60 % 0.00 in
22:51 58.3 °F 44.0 °F 29.99 in NW 1.0 mph 4.0 mph 59 % 0.00 in
23:06 58.1 °F 43.0 °F 29.99 in NNW 1.0 mph 4.0 mph 58 % 0.00 in
23:21 57.9 °F 43.0 °F 29.99 in Calm     58 % 0.00 in
23:36 57.5 °F 43.0 °F 29.98 in Calm   2.0 mph 58 % 0.00 in
23:51 57.0 °F 42.0 °F 29.98 in Calm   2.0 mph 58 % 0.00 in
Des Moines Weather and Climate
Compliments of Weather Underground - 3 mb

Script developed by  Jim McMurry - jmcmurry@mwt.net Adapted for the template by  Wim van der Kuil - Leuven-Template.eu

You find our weather info also at:

Weather Underground

Equipment we use:

Weather-station
Davis VP2 Plus

Weather-program
Davis Weatherlink.Com

Weather-server
iMac (Retina 4K, 21.5-inch, Late 2015)

Provider
Hostmonster.com

Davis VP2 Plus

Davis Weatherlink.Com

iMac (Retina 4K, 21.5-inch, Late 2015)

Hostmonster.com